• Join FlightAware (Why Join?)
  • Login
  • US Flag 
06:48AM EDT


 

Airport Tracker/Info


-or-


 

Live Flight TrackerFlight Track Log ✈ SWA2975 ✈ 04-Jul-2013 ✈ KDEN - KSLC

Flight Track Log - Related Links

Times and Time Zones

All times are in EDT time to prevent confusion due to time zone crossing. See the SWA2975 flight status page for this flight to view local times or setup timezone preferences in your user account.

Time Position Orientation Groundspeed Altitude Reporting Facility
EDT Latitude Longitude Course Direction KTS MPH feet Rate Location/Type
03:52PM 39.8610 -104.6750 241° Southwest 18 21  Level FlightAware
03:52PM 39.8610 -104.6760 270° West 19 22 780 Level FlightAware
03:53PM 39.8610 -104.6800 270° West 21 24 840 Level FlightAware
03:53PM 39.8600 -104.6830 247° West 16 18 900 Level FlightAware
03:53PM 39.8600 -104.6840 270° West 30 35 960 Level FlightAware
03:54PM 39.8610 -104.6850 322° Northwest 33 38 1,020 Level FlightAware
03:54PM 39.8630 -104.6850 360° North 32 37 1,080 Level FlightAware
03:54PM 39.8640 -104.6850 360° North 30 35 1,140 Level FlightAware
03:55PM 39.8650 -104.6850 360° North 24 28 1,260 Level FlightAware
03:55PM 39.8650 -104.6860 270° West 17 20 1,320 Level FlightAware
03:58PM 39.8840 -105.0414 276° West  Level FlightAware Approximate
03:58PM 39.8650 -104.6870 276° West 26 30  Level FlightAware
03:58PM 39.8660 -104.6870 360° North 15 17 4,140 Level FlightAware
03:58PM 39.8700 -104.6870 360° North 80 92 5,220 Level FlightAware
03:59PM 39.8830 -104.6870 360° North 160 184 8,280 Level FlightAware
03:59PM 39.9000 -104.6870 360° North 173 199 6,100 11,460 Climbing FlightAware
03:59PM 39.9100 -104.6900 347° North 183 211 6,500 1,500 Climbing FlightAware
04:00PM 39.9170 -104.6920 348° North 198 228 6,600 1,800 Climbing FlightAware
04:00PM 39.9700 -104.7120 344° North 247 284 8,300 2,100 Climbing FlightAware
04:01PM 39.9860 -104.7230 332° Northwest 254 292 9,000 2,400 Climbing FlightAware
04:01PM 39.9980 -104.7390 314° West 269 310 9,500 1,800 Climbing FlightAware
04:01PM 40.0110 -104.7610 308° West 289 333 9,900 2,880 Climbing FlightAware
04:02PM 40.0400 -104.8080 309° West 293 337 11,900 3,360 Climbing FlightAware
04:02PM 40.0590 -104.8510 300° West 302 348 13,400 2,820 Climbing FlightAware
04:03PM 40.0540 -104.9180 264° West 319 367 15,000 2,700 Climbing FlightAware
04:03PM 40.0580 -104.9550 278° West 318 366 16,000 2,880 Climbing FlightAware
04:04PM 40.0710 -105.0230 284° West 327 376 17,700 2,880 Climbing FlightAware
04:04PM 40.0800 -105.1120 278° West 334 384 19,800 2,640 Climbing FlightAware
04:05PM 40.0920 -105.2040 280° West 345 397 21,700 2,220 Climbing FlightAware
04:06PM 40.1030 -105.2890 280° West 362 417 23,000 1,560 Climbing FlightAware
04:07PM 40.1290 -105.3770 291° West 362 417 23,900 1,380 Climbing FlightAware
04:07PM 40.1570 -105.4470 298° West 366 421 24,900 1,620 Climbing FlightAware
04:08PM 40.1910 -105.5260 299° West 378 435 26,000 1,020 Climbing FlightAware
04:09PM 40.2180 -105.6140 292° West 381 438 26,300 1,020 Climbing FlightAware
04:09PM 40.2220 -105.7140 273° West 403 464 27,500 1,800 Climbing FlightAware
04:10PM 40.2170 -105.8120 266° West 408 470 28,800 1,740 Climbing FlightAware
04:11PM 40.2120 -105.9710 268° West 416 479 30,600 1,680 Climbing FlightAware
04:12PM 40.2090 -106.0680 268° West 419 482 31,700 1,560 Climbing FlightAware
04:12PM 40.2070 -106.1900 269° West 422 486 32,900 1,380 Climbing FlightAware
04:13PM 40.2040 -106.2910 268° West 425 489 33,800 1,260 Climbing FlightAware
04:14PM 40.2020 -106.3960 269° West 431 496 34,600 1,140 Climbing FlightAware
04:14PM 40.1940 -106.4890 264° West 434 499 35,300 1,020 Climbing FlightAware
04:15PM 40.1830 -106.6280 264° West 441 507 36,200 1,080 Climbing FlightAware
04:16PM 40.1720 -106.7470 263° West 440 506 37,100 1,200 Climbing FlightAware
04:17PM 40.1620 -106.8690 264° West 439 505 38,000 600 Climbing FlightAware
04:17PM 40.1530 -106.9740 264° West 441 507 38,000  Level FlightAware
04:18PM 40.1430 -107.0920 264° West 442 509 38,000  Level FlightAware
04:19PM 40.1340 -107.1940 263° West 443 510 38,000  Level FlightAware
04:20PM 40.1230 -107.3160 263° West 443 510 38,000  Level FlightAware
04:20PM 40.1140 -107.4210 264° West 444 511 38,000  Level FlightAware
04:21PM 40.1040 -107.5260 263° West 444 511 38,000  Level FlightAware
04:22PM 40.0940 -107.6430 264° West 444 511 38,000  Level FlightAware
04:22PM 40.0840 -107.7510 263° West 444 511 38,000  Level FlightAware
04:23PM 40.0740 -107.8510 263° West 443 510 38,000  Level FlightAware
04:24PM 40.0690 -107.9570 267° West 439 505 38,000  Level FlightAware
04:24PM 40.0740 -108.0740 273° West 438 504 38,000  Level FlightAware
04:25PM 40.0790 -108.1780 274° West 437 503 38,000  Level FlightAware
04:26PM 40.0840 -108.2880 273° West 437 503 38,000  Level FlightAware
04:26PM 40.0890 -108.4040 273° West 436 502 38,000  Level FlightAware
04:27PM 40.0930 -108.5110 273° West 437 503 38,000  Level FlightAware
04:28PM 40.0970 -108.6130 273° West 437 503 38,000  Level FlightAware
04:28PM 40.1010 -108.7090 273° West 438 504 38,000  Level FlightAware
04:29PM 40.1060 -108.8300 273° West 437 503 38,000  Level FlightAware
04:30PM 40.1080 -108.8930 272° West 437 503 38,000  Level FlightAware
04:31PM 40.1180 -109.1470 273° West 438 504 38,000  Level FlightAware
04:32PM 40.1220 -109.2510 273° West 438 504 38,000 -120 Level FlightAware
04:33PM 40.1260 -109.3670 273° West 438 504 37,900 -600 Descending FlightAware
04:33PM 40.1290 -109.4750 272° West 434 499 37,200 -1,020 Descending FlightAware
04:34PM 40.1330 -109.5940 273° West 437 503 36,500 -1,020 Descending FlightAware
04:35PM 40.1370 -109.7030 273° West 435 501 35,800 -960 Descending FlightAware
04:35PM 40.1400 -109.8090 272° West 434 499 35,200 -960 Descending FlightAware
04:36PM 40.1430 -109.9030 272° West 434 499 34,600 -1,020 Descending FlightAware
04:37PM 40.1460 -109.9980 272° West 437 503 34,000 -420 Descending FlightAware
04:38PM 40.1490 -110.1300 272° West 425 489 34,000  Level FlightAware
04:38PM 40.1480 -110.2550 269° West 424 488 34,000 -780 Level FlightAware
04:39PM 40.1470 -110.3590 269° West 420 483 32,900 -2,220 Descending FlightAware
04:40PM 40.1460 -110.4730 269° West 423 487 30,900 -1,740 Descending FlightAware
04:40PM 40.1450 -110.5480 269° West 422 486 30,600 -1,740 Descending FlightAware
04:41PM 40.1430 -110.7330 269° West 409 471 27,800 -2,760 Descending FlightAware
04:42PM 40.1420 -110.8310 269° West 397 457 25,600 -2,040 Descending FlightAware
04:43PM 40.1410 -110.9080 269° West 395 455 25,200 -360 Descending FlightAware
04:43PM 40.1400 -110.9830 269° West 395 455 25,200  Level FlightAware
04:44PM 40.1390 -111.0810 269° West 395 455 25,200  Level FlightAware
04:45PM 40.1380 -111.1300 268° West 395 455 25,200  Level FlightAware
04:45PM 40.1370 -111.2290 269° West 395 455 25,200  Level FlightAware
04:46PM 40.1360 -111.2980 269° West 395 455 25,200 -3,000 Level FlightAware
04:49PM 40.1650 -111.6420 276° West 300 345 16,000 -3,120 Descending FlightAware
04:49PM 40.1920 -111.6990 302° West 292 336 15,300 -1,320 Descending FlightAware
04:50PM 40.2340 -111.7560 314° West 289 333 14,200 -900 Descending FlightAware
04:51PM 40.2640 -111.7970 314° West 289 333 14,100 -1,500 Descending FlightAware
04:51PM 40.3270 -111.8680 319° Northwest 286 329 11,900 -1,980 Descending FlightAware
04:52PM 40.3610 -111.9030 322° Northwest 281 323 11,200 -840 Descending FlightAware
04:53PM 40.4000 -111.9300 332° Northwest 275 316 11,000 -360 Descending FlightAware
04:53PM 40.4470 -111.9350 355° North 252 290 10,800 -1,020 Descending FlightAware
04:54PM 40.4860 -111.9390 356° North 251 289 9,800 -1,680 Descending FlightAware
04:54PM 40.4980 -111.9410 353° North 248 285 9,600 -1,320 Descending FlightAware
04:54PM 40.5310 -111.9450 355° North 234 269 8,900 -1,320 Descending FlightAware
04:55PM 40.5480 -111.9470 355° North 228 262 8,600 -1,200 Descending FlightAware
04:55PM 40.5740 -111.9500 355° North 218 251 8,100 -1,200 Descending FlightAware
04:56PM 40.6030 -111.9530 356° North 200 230 7,500 -1,260 Descending FlightAware
04:56PM 40.6280 -111.9560 355° North 187 215 6,900 -1,200 Descending FlightAware
04:57PM 40.6530 -111.9590 355° North 182 209 6,400 -1,080 Descending FlightAware
04:57PM 40.6630 -111.9600 356° North 183 211 6,200 -900 Descending FlightAware
04:57PM 40.6880 -111.9630 355° North 184 212 5,800 -840 Descending FlightAware
04:58PM 40.7050 -111.9650 355° North 170 196 5,500 -900 Descending FlightAware
04:58PM 40.7290 -111.9680 355° North 158 182 5,000 -840 Descending FlightAware
04:58PM 40.7430 -111.9690 357° North 158 182 4,800 -780 Descending FlightAware
04:59PM 40.7590 -111.9710 355° North 162 186 4,500 -420 Descending FlightAware
05:00PM 40.7850 -111.9750 353° North 160 184 4,400 -180 Descending FlightAware
05:07PM 40.7833 -111.9667 North  Level FlightAware Approximate